sensor_id;sensor_type;location;lat;lon;timestamp;temperature;humidity
14093;DHT22;7123;49.468;10.992;2023-03-13T00:01:32;7.30;99.90
14093;DHT22;7123;49.468;10.992;2023-03-13T00:04:00;7.20;99.90
14093;DHT22;7123;49.468;10.992;2023-03-13T00:06:30;7.30;99.90
14093;DHT22;7123;49.468;10.992;2023-03-13T00:09:00;7.20;99.90
14093;DHT22;7123;49.468;10.992;2023-03-13T00:11:28;7.20;99.90
14093;DHT22;7123;49.468;10.992;2023-03-13T00:13:56;7.20;99.90
14093;DHT22;7123;49.468;10.992;2023-03-13T00:16:23;7.20;99.90
14093;DHT22;7123;49.468;10.992;2023-03-13T00:18:52;7.20;99.90
14093;DHT22;7123;49.468;10.992;2023-03-13T00:21:22;7.20;99.90
14093;DHT22;7123;49.468;10.992;2023-03-13T00:23:48;7.20;99.90
14093;DHT22;7123;49.468;10.992;2023-03-13T00:26:18;7.20;99.90
14093;DHT22;7123;49.468;10.992;2023-03-13T00:28:45;7.20;99.90
14093;DHT22;7123;49.468;10.992;2023-03-13T00:31:17;7.20;99.90
14093;DHT22;7123;49.468;10.992;2023-03-13T00:33:46;7.20;99.90
14093;DHT22;7123;49.468;10.992;2023-03-13T00:36:18;7.20;99.90
14093;DHT22;7123;49.468;10.992;2023-03-13T00:38:45;7.20;99.90
14093;DHT22;7123;49.468;10.992;2023-03-13T00:41:14;7.20;99.90
14093;DHT22;7123;49.468;10.992;2023-03-13T00:43:42;7.20;99.90
14093;DHT22;7123;49.468;10.992;2023-03-13T00:46:10;7.20;99.90
14093;DHT22;7123;49.468;10.992;2023-03-13T00:48:37;7.20;99.90
14093;DHT22;7123;49.468;10.992;2023-03-13T00:51:04;7.20;99.90
14093;DHT22;7123;49.468;10.992;2023-03-13T00:53:31;7.30;99.90
14093;DHT22;7123;49.468;10.992;2023-03-13T00:56:00;7.30;99.90
14093;DHT22;7123;49.468;10.992;2023-03-13T00:58:29;7.30;99.90
14093;DHT22;7123;49.468;10.992;2023-03-13T01:00:56;7.30;99.90
14093;DHT22;7123;49.468;10.992;2023-03-13T01:03:24;7.30;99.90
14093;DHT22;7123;49.468;10.992;2023-03-13T01:05:58;7.20;99.90
14093;DHT22;7123;49.468;10.992;2023-03-13T01:08:26;7.20;99.90
14093;DHT22;7123;49.468;10.992;2023-03-13T01:11:01;7.20;99.90
14093;DHT22;7123;49.468;10.992;2023-03-13T01:13:29;7.20;99.90
14093;DHT22;7123;49.468;10.992;2023-03-13T01:16:03;7.20;99.90
14093;DHT22;7123;49.468;10.992;2023-03-13T01:18:30;7.20;99.90
14093;DHT22;7123;49.468;10.992;2023-03-13T01:20:57;7.20;99.90
14093;DHT22;7123;49.468;10.992;2023-03-13T01:23:25;7.20;99.90
14093;DHT22;7123;49.468;10.992;2023-03-13T01:25:53;7.20;99.90
14093;DHT22;7123;49.468;10.992;2023-03-13T01:28:21;7.20;99.90
14093;DHT22;7123;49.468;10.992;2023-03-13T01:30:48;7.20;99.90
14093;DHT22;7123;49.468;10.992;2023-03-13T01:33:18;7.20;99.90
14093;DHT22;7123;49.468;10.992;2023-03-13T01:35:45;7.20;99.90
14093;DHT22;7123;49.468;10.992;2023-03-13T01:38:11;7.20;99.90
14093;DHT22;7123;49.468;10.992;2023-03-13T01:40:43;7.20;99.90
14093;DHT22;7123;49.468;10.992;2023-03-13T01:43:23;7.20;99.90
14093;DHT22;7123;49.468;10.992;2023-03-13T01:48:36;7.20;99.90
14093;DHT22;7123;49.468;10.992;2023-03-13T01:51:08;7.20;99.90
14093;DHT22;7123;49.468;10.992;2023-03-13T01:53:39;7.30;99.90
14093;DHT22;7123;49.468;10.992;2023-03-13T01:56:10;7.20;99.90
14093;DHT22;7123;49.468;10.992;2023-03-13T01:58:38;7.20;99.90
14093;DHT22;7123;49.468;10.992;2023-03-13T02:01:05;7.20;99.90
14093;DHT22;7123;49.468;10.992;2023-03-13T02:03:33;7.20;99.90
14093;DHT22;7123;49.468;10.992;2023-03-13T02:06:03;7.20;99.90
14093;DHT22;7123;49.468;10.992;2023-03-13T02:08:41;7.20;99.90
14093;DHT22;7123;49.468;10.992;2023-03-13T02:11:24;7.20;99.90
14093;DHT22;7123;49.468;10.992;2023-03-13T02:13:53;7.20;99.90
14093;DHT22;7123;49.468;10.992;2023-03-13T02:16:21;7.20;99.90
14093;DHT22;7123;49.468;10.992;2023-03-13T02:18:49;7.20;99.90
14093;DHT22;7123;49.468;10.992;2023-03-13T02:24:38;7.20;99.90
14093;DHT22;7123;49.468;10.992;2023-03-13T02:27:08;7.20;99.90
14093;DHT22;7123;49.468;10.992;2023-03-13T02:29:35;7.20;99.90
14093;DHT22;7123;49.468;10.992;2023-03-13T02:32:01;7.20;99.90
14093;DHT22;7123;49.468;10.992;2023-03-13T02:34:31;7.20;99.90
14093;DHT22;7123;49.468;10.992;2023-03-13T02:37:00;7.20;99.90
14093;DHT22;7123;49.468;10.992;2023-03-13T02:39:28;7.20;99.90
14093;DHT22;7123;49.468;10.992;2023-03-13T02:41:57;7.20;99.90
14093;DHT22;7123;49.468;10.992;2023-03-13T02:44:25;7.20;99.90
14093;DHT22;7123;49.468;10.992;2023-03-13T02:46:52;7.20;99.90
14093;DHT22;7123;49.468;10.992;2023-03-13T02:49:23;7.20;99.90
14093;DHT22;7123;49.468;10.992;2023-03-13T02:51:50;7.20;99.90
14093;DHT22;7123;49.468;10.992;2023-03-13T02:54:30;7.20;99.90
14093;DHT22;7123;49.468;10.992;2023-03-13T02:57:01;7.20;99.90
14093;DHT22;7123;49.468;10.992;2023-03-13T02:59:28;7.20;99.90
14093;DHT22;7123;49.468;10.992;2023-03-13T03:01:55;7.20;99.90
14093;DHT22;7123;49.468;10.992;2023-03-13T03:04:23;7.20;99.90
14093;DHT22;7123;49.468;10.992;2023-03-13T03:06:51;7.20;99.90
14093;DHT22;7123;49.468;10.992;2023-03-13T03:09:19;7.30;99.90
14093;DHT22;7123;49.468;10.992;2023-03-13T03:11:46;7.20;99.90
14093;DHT22;7123;49.468;10.992;2023-03-13T03:14:13;7.20;99.90
14093;DHT22;7123;49.468;10.992;2023-03-13T03:16:40;7.20;99.90
14093;DHT22;7123;49.468;10.992;2023-03-13T03:19:07;7.20;99.90
14093;DHT22;7123;49.468;10.992;2023-03-13T03:21:34;7.40;99.90
14093;DHT22;7123;49.468;10.992;2023-03-13T03:24:01;7.20;99.90
14093;DHT22;7123;49.468;10.992;2023-03-13T03:26:28;7.20;99.90
14093;DHT22;7123;49.468;10.992;2023-03-13T03:28:55;7.20;99.90
14093;DHT22;7123;49.468;10.992;2023-03-13T03:31:21;7.20;99.90
14093;DHT22;7123;49.468;10.992;2023-03-13T03:33:48;7.20;99.90
14093;DHT22;7123;49.468;10.992;2023-03-13T03:36:18;7.20;99.90
14093;DHT22;7123;49.468;10.992;2023-03-13T03:38:49;7.20;99.90
14093;DHT22;7123;49.468;10.992;2023-03-13T03:41:16;7.20;99.90
14093;DHT22;7123;49.468;10.992;2023-03-13T03:43:45;7.30;99.90
14093;DHT22;7123;49.468;10.992;2023-03-13T03:46:13;7.30;99.90
14093;DHT22;7123;49.468;10.992;2023-03-13T03:48:40;7.30;99.90
14093;DHT22;7123;49.468;10.992;2023-03-13T03:51:07;7.30;99.90
14093;DHT22;7123;49.468;10.992;2023-03-13T03:53:33;7.30;99.90
14093;DHT22;7123;49.468;10.992;2023-03-13T03:56:00;7.30;99.90
14093;DHT22;7123;49.468;10.992;2023-03-13T03:58:27;7.30;99.90
14093;DHT22;7123;49.468;10.992;2023-03-13T04:00:56;7.20;99.90
14093;DHT22;7123;49.468;10.992;2023-03-13T04:03:23;7.20;99.90
14093;DHT22;7123;49.468;10.992;2023-03-13T04:05:50;7.20;99.90
14093;DHT22;7123;49.468;10.992;2023-03-13T04:08:17;7.20;99.90
14093;DHT22;7123;49.468;10.992;2023-03-13T04:10:44;7.20;99.90
14093;DHT22;7123;49.468;10.992;2023-03-13T04:13:11;7.20;99.90
14093;DHT22;7123;49.468;10.992;2023-03-13T04:15:38;7.30;99.90
14093;DHT22;7123;49.468;10.992;2023-03-13T04:18:05;7.30;99.90
14093;DHT22;7123;49.468;10.992;2023-03-13T04:20:32;7.30;99.90
14093;DHT22;7123;49.468;10.992;2023-03-13T04:22:59;7.30;99.90
14093;DHT22;7123;49.468;10.992;2023-03-13T04:25:26;7.30;99.90
14093;DHT22;7123;49.468;10.992;2023-03-13T04:27:53;7.30;99.90
14093;DHT22;7123;49.468;10.992;2023-03-13T04:30:19;7.30;99.90
14093;DHT22;7123;49.468;10.992;2023-03-13T04:32:46;7.30;99.90
14093;DHT22;7123;49.468;10.992;2023-03-13T04:35:13;7.30;99.90
14093;DHT22;7123;49.468;10.992;2023-03-13T04:37:40;7.40;99.90
14093;DHT22;7123;49.468;10.992;2023-03-13T04:40:07;7.40;99.90
14093;DHT22;7123;49.468;10.992;2023-03-13T04:42:34;7.40;99.90
14093;DHT22;7123;49.468;10.992;2023-03-13T04:45:00;7.40;99.90
14093;DHT22;7123;49.468;10.992;2023-03-13T04:47:27;7.40;99.90
14093;DHT22;7123;49.468;10.992;2023-03-13T04:49:54;7.40;99.90
14093;DHT22;7123;49.468;10.992;2023-03-13T04:52:21;7.40;99.90
14093;DHT22;7123;49.468;10.992;2023-03-13T04:54:48;7.40;99.90
14093;DHT22;7123;49.468;10.992;2023-03-13T04:57:16;7.40;99.90
14093;DHT22;7123;49.468;10.992;2023-03-13T04:59:43;7.40;99.90
14093;DHT22;7123;49.468;10.992;2023-03-13T05:02:11;7.40;99.90
14093;DHT22;7123;49.468;10.992;2023-03-13T05:04:38;7.50;99.90
14093;DHT22;7123;49.468;10.992;2023-03-13T05:07:05;7.50;99.90
14093;DHT22;7123;49.468;10.992;2023-03-13T05:09:32;7.50;99.90
14093;DHT22;7123;49.468;10.992;2023-03-13T05:11:58;7.50;99.90
14093;DHT22;7123;49.468;10.992;2023-03-13T05:14:25;7.50;99.90
14093;DHT22;7123;49.468;10.992;2023-03-13T05:16:52;7.50;99.90
14093;DHT22;7123;49.468;10.992;2023-03-13T05:19:18;7.50;99.90
14093;DHT22;7123;49.468;10.992;2023-03-13T05:21:45;7.50;99.90
14093;DHT22;7123;49.468;10.992;2023-03-13T05:24:12;7.50;99.90
14093;DHT22;7123;49.468;10.992;2023-03-13T05:26:38;7.50;99.90
14093;DHT22;7123;49.468;10.992;2023-03-13T05:29:05;7.50;99.90
14093;DHT22;7123;49.468;10.992;2023-03-13T05:31:32;7.50;99.90
14093;DHT22;7123;49.468;10.992;2023-03-13T05:33:58;7.50;99.90
14093;DHT22;7123;49.468;10.992;2023-03-13T05:36:25;7.50;99.90
14093;DHT22;7123;49.468;10.992;2023-03-13T05:38:52;7.50;99.90
14093;DHT22;7123;49.468;10.992;2023-03-13T05:41:18;7.50;99.90
14093;DHT22;7123;49.468;10.992;2023-03-13T05:43:45;7.60;99.90
14093;DHT22;7123;49.468;10.992;2023-03-13T05:46:12;7.60;99.90
14093;DHT22;7123;49.468;10.992;2023-03-13T05:48:38;7.70;99.90
14093;DHT22;7123;49.468;10.992;2023-03-13T05:51:05;7.70;99.90
14093;DHT22;7123;49.468;10.992;2023-03-13T05:53:32;7.80;99.90
14093;DHT22;7123;49.468;10.992;2023-03-13T05:55:58;7.70;99.90
14093;DHT22;7123;49.468;10.992;2023-03-13T05:58:25;7.70;99.90
14093;DHT22;7123;49.468;10.992;2023-03-13T06:00:52;7.70;99.90
14093;DHT22;7123;49.468;10.992;2023-03-13T06:03:18;7.80;99.90
14093;DHT22;7123;49.468;10.992;2023-03-13T06:05:45;7.70;99.90
14093;DHT22;7123;49.468;10.992;2023-03-13T06:08:12;7.70;99.90
14093;DHT22;7123;49.468;10.992;2023-03-13T06:10:38;7.70;99.90
14093;DHT22;7123;49.468;10.992;2023-03-13T06:13:05;7.80;99.90
14093;DHT22;7123;49.468;10.992;2023-03-13T06:15:55;7.80;99.90
14093;DHT22;7123;49.468;10.992;2023-03-13T06:18:23;7.80;99.90
14093;DHT22;7123;49.468;10.992;2023-03-13T06:20:58;7.90;99.90
14093;DHT22;7123;49.468;10.992;2023-03-13T06:23:25;7.90;99.90
14093;DHT22;7123;49.468;10.992;2023-03-13T06:25:52;8.00;99.90
14093;DHT22;7123;49.468;10.992;2023-03-13T06:28:18;8.00;99.90
14093;DHT22;7123;49.468;10.992;2023-03-13T06:30:45;8.00;99.90
14093;DHT22;7123;49.468;10.992;2023-03-13T06:33:12;8.10;99.90
14093;DHT22;7123;49.468;10.992;2023-03-13T06:35:40;8.10;99.90
14093;DHT22;7123;49.468;10.992;2023-03-13T06:38:21;8.20;99.90
14093;DHT22;7123;49.468;10.992;2023-03-13T06:40:48;8.20;99.90
14093;DHT22;7123;49.468;10.992;2023-03-13T06:43:15;8.20;99.90
14093;DHT22;7123;49.468;10.992;2023-03-13T06:45:41;8.30;99.90
14093;DHT22;7123;49.468;10.992;2023-03-13T06:48:08;8.30;99.90
14093;DHT22;7123;49.468;10.992;2023-03-13T06:50:39;8.30;99.90
14093;DHT22;7123;49.468;10.992;2023-03-13T06:53:05;8.20;99.90
14093;DHT22;7123;49.468;10.992;2023-03-13T06:55:32;8.30;99.90
14093;DHT22;7123;49.468;10.992;2023-03-13T06:57:59;8.20;99.90
14093;DHT22;7123;49.468;10.992;2023-03-13T07:00:26;8.20;99.90
14093;DHT22;7123;49.468;10.992;2023-03-13T07:02:52;8.30;99.90
14093;DHT22;7123;49.468;10.992;2023-03-13T07:05:19;8.30;99.90
14093;DHT22;7123;49.468;10.992;2023-03-13T07:07:46;8.30;99.90
14093;DHT22;7123;49.468;10.992;2023-03-13T07:10:13;8.40;99.90
14093;DHT22;7123;49.468;10.992;2023-03-13T07:12:40;8.40;99.90
14093;DHT22;7123;49.468;10.992;2023-03-13T07:15:06;8.40;99.90
14093;DHT22;7123;49.468;10.992;2023-03-13T07:17:33;8.50;99.90
14093;DHT22;7123;49.468;10.992;2023-03-13T07:20:00;8.40;99.90
14093;DHT22;7123;49.468;10.992;2023-03-13T07:22:27;8.50;99.90
14093;DHT22;7123;49.468;10.992;2023-03-13T07:24:54;8.60;99.90
14093;DHT22;7123;49.468;10.992;2023-03-13T07:27:21;8.60;99.90
14093;DHT22;7123;49.468;10.992;2023-03-13T07:29:48;8.60;99.90
14093;DHT22;7123;49.468;10.992;2023-03-13T07:32:15;8.60;99.90
14093;DHT22;7123;49.468;10.992;2023-03-13T07:34:42;8.70;99.90
14093;DHT22;7123;49.468;10.992;2023-03-13T07:37:12;8.70;99.90
14093;DHT22;7123;49.468;10.992;2023-03-13T07:39:40;8.70;99.90
14093;DHT22;7123;49.468;10.992;2023-03-13T07:42:11;8.80;99.90
14093;DHT22;7123;49.468;10.992;2023-03-13T07:44:38;8.70;99.90
14093;DHT22;7123;49.468;10.992;2023-03-13T07:47:05;8.70;99.90
14093;DHT22;7123;49.468;10.992;2023-03-13T07:49:32;8.70;99.90
14093;DHT22;7123;49.468;10.992;2023-03-13T07:51:59;8.70;99.90
14093;DHT22;7123;49.468;10.992;2023-03-13T07:54:25;8.70;99.90
14093;DHT22;7123;49.468;10.992;2023-03-13T07:56:52;8.80;99.90
14093;DHT22;7123;49.468;10.992;2023-03-13T07:59:19;8.90;99.90
14093;DHT22;7123;49.468;10.992;2023-03-13T08:01:45;8.90;99.90
14093;DHT22;7123;49.468;10.992;2023-03-13T08:04:13;8.90;99.90
14093;DHT22;7123;49.468;10.992;2023-03-13T08:06:40;9.00;99.90
14093;DHT22;7123;49.468;10.992;2023-03-13T08:09:07;9.00;99.90
14093;DHT22;7123;49.468;10.992;2023-03-13T08:11:37;9.00;99.90
14093;DHT22;7123;49.468;10.992;2023-03-13T08:14:06;9.20;99.90
14093;DHT22;7123;49.468;10.992;2023-03-13T08:16:33;9.30;99.90
14093;DHT22;7123;49.468;10.992;2023-03-13T08:19:02;9.50;99.90
14093;DHT22;7123;49.468;10.992;2023-03-13T08:21:35;9.60;99.90
14093;DHT22;7123;49.468;10.992;2023-03-13T08:24:05;9.90;99.90
14093;DHT22;7123;49.468;10.992;2023-03-13T08:26:34;10.00;99.90
14093;DHT22;7123;49.468;10.992;2023-03-13T08:29:04;10.10;99.90
14093;DHT22;7123;49.468;10.992;2023-03-13T08:31:34;10.10;99.90
14093;DHT22;7123;49.468;10.992;2023-03-13T08:34:02;10.20;99.90
14093;DHT22;7123;49.468;10.992;2023-03-13T08:36:34;10.20;99.90
14093;DHT22;7123;49.468;10.992;2023-03-13T08:39:08;10.30;99.90
14093;DHT22;7123;49.468;10.992;2023-03-13T08:41:35;10.30;99.90
14093;DHT22;7123;49.468;10.992;2023-03-13T08:44:03;10.30;99.90
14093;DHT22;7123;49.468;10.992;2023-03-13T08:46:32;10.30;99.90
14093;DHT22;7123;49.468;10.992;2023-03-13T08:48:59;10.30;99.90
14093;DHT22;7123;49.468;10.992;2023-03-13T08:51:27;10.20;99.90
14093;DHT22;7123;49.468;10.992;2023-03-13T08:53:55;10.20;99.90
14093;DHT22;7123;49.468;10.992;2023-03-13T08:56:24;10.10;99.90
14093;DHT22;7123;49.468;10.992;2023-03-13T08:58:52;10.20;99.90
14093;DHT22;7123;49.468;10.992;2023-03-13T09:01:21;10.30;99.90
14093;DHT22;7123;49.468;10.992;2023-03-13T09:03:48;10.30;99.90
14093;DHT22;7123;49.468;10.992;2023-03-13T09:06:16;10.40;99.90
14093;DHT22;7123;49.468;10.992;2023-03-13T09:08:43;10.60;99.90
14093;DHT22;7123;49.468;10.992;2023-03-13T09:11:12;10.60;99.90
14093;DHT22;7123;49.468;10.992;2023-03-13T09:13:42;10.80;99.90
14093;DHT22;7123;49.468;10.992;2023-03-13T09:16:13;10.80;99.90
14093;DHT22;7123;49.468;10.992;2023-03-13T09:18:41;11.00;99.90
14093;DHT22;7123;49.468;10.992;2023-03-13T09:21:11;11.10;99.90
14093;DHT22;7123;49.468;10.992;2023-03-13T09:23:38;11.20;99.90
14093;DHT22;7123;49.468;10.992;2023-03-13T09:26:05;11.30;99.90
14093;DHT22;7123;49.468;10.992;2023-03-13T09:28:32;11.50;99.90
14093;DHT22;7123;49.468;10.992;2023-03-13T09:31:13;11.60;99.90
14093;DHT22;7123;49.468;10.992;2023-03-13T09:33:41;11.60;99.90
14093;DHT22;7123;49.468;10.992;2023-03-13T09:36:09;11.70;99.90
14093;DHT22;7123;49.468;10.992;2023-03-13T09:38:37;11.80;99.90
14093;DHT22;7123;49.468;10.992;2023-03-13T09:44:06;11.80;99.90
14093;DHT22;7123;49.468;10.992;2023-03-13T09:51:52;12.20;99.90
14093;DHT22;7123;49.468;10.992;2023-03-13T09:54:30;12.40;99.90
14093;DHT22;7123;49.468;10.992;2023-03-13T09:57:19;12.70;99.90
14093;DHT22;7123;49.468;10.992;2023-03-13T10:02:39;13.00;99.90
14093;DHT22;7123;49.468;10.992;2023-03-13T10:05:26;13.20;99.90
14093;DHT22;7123;49.468;10.992;2023-03-13T10:07:59;13.30;99.90
14093;DHT22;7123;49.468;10.992;2023-03-13T10:10:36;13.30;99.90
14093;DHT22;7123;49.468;10.992;2023-03-13T10:15:56;13.30;99.90
14093;DHT22;7123;49.468;10.992;2023-03-13T10:18:25;13.20;99.90
14093;DHT22;7123;49.468;10.992;2023-03-13T10:20:55;13.40;99.90
14093;DHT22;7123;49.468;10.992;2023-03-13T10:26:23;13.20;99.90
14093;DHT22;7123;49.468;10.992;2023-03-13T10:29:18;13.30;99.90
14093;DHT22;7123;49.468;10.992;2023-03-13T10:31:59;13.30;99.90
14093;DHT22;7123;49.468;10.992;2023-03-13T10:34:29;13.40;99.90
14093;DHT22;7123;49.468;10.992;2023-03-13T10:37:13;13.40;99.90
14093;DHT22;7123;49.468;10.992;2023-03-13T10:39:40;13.40;99.90
14093;DHT22;7123;49.468;10.992;2023-03-13T10:42:25;13.40;99.90
14093;DHT22;7123;49.468;10.992;2023-03-13T10:44:58;13.40;99.90
14093;DHT22;7123;49.468;10.992;2023-03-13T10:47:26;13.50;99.90
14093;DHT22;7123;49.468;10.992;2023-03-13T10:49:57;13.50;99.90
14093;DHT22;7123;49.468;10.992;2023-03-13T10:52:50;13.50;99.90
14093;DHT22;7123;49.468;10.992;2023-03-13T10:55:22;13.60;99.90
14093;DHT22;7123;49.468;10.992;2023-03-13T10:57:59;13.60;99.90
14093;DHT22;7123;49.468;10.992;2023-03-13T11:00:39;13.60;99.90
14093;DHT22;7123;49.468;10.992;2023-03-13T11:03:16;13.50;99.90
14093;DHT22;7123;49.468;10.992;2023-03-13T11:05:53;13.60;99.90
14093;DHT22;7123;49.468;10.992;2023-03-13T11:08:25;13.60;99.90
14093;DHT22;7123;49.468;10.992;2023-03-13T11:10:58;13.60;99.90
14093;DHT22;7123;49.468;10.992;2023-03-13T11:13:35;13.70;99.90
14093;DHT22;7123;49.468;10.992;2023-03-13T11:16:20;13.60;99.90
14093;DHT22;7123;49.468;10.992;2023-03-13T11:24:56;13.80;99.90
14093;DHT22;7123;49.468;10.992;2023-03-13T11:27:35;13.80;99.90
14093;DHT22;7123;49.468;10.992;2023-03-13T11:33:04;14.00;99.90
14093;DHT22;7123;49.468;10.992;2023-03-13T11:35:46;14.10;99.90
14093;DHT22;7123;49.468;10.992;2023-03-13T11:57:31;14.20;99.90
14093;DHT22;7123;49.468;10.992;2023-03-13T12:00:24;14.20;99.90
14093;DHT22;7123;49.468;10.992;2023-03-13T12:05:42;14.30;99.90
14093;DHT22;7123;49.468;10.992;2023-03-13T12:08:38;14.30;99.90
14093;DHT22;7123;49.468;10.992;2023-03-13T12:11:36;14.30;99.90
14093;DHT22;7123;49.468;10.992;2023-03-13T12:14:15;14.40;99.90
14093;DHT22;7123;49.468;10.992;2023-03-13T12:16:54;14.40;99.90
14093;DHT22;7123;49.468;10.992;2023-03-13T12:19:31;14.40;99.90
14093;DHT22;7123;49.468;10.992;2023-03-13T12:22:47;14.50;99.90
14093;DHT22;7123;49.468;10.992;2023-03-13T12:25:02;14.50;99.90
14093;DHT22;7123;49.468;10.992;2023-03-13T12:27:37;14.60;99.90
14093;DHT22;7123;49.468;10.992;2023-03-13T12:30:20;14.60;99.90
14093;DHT22;7123;49.468;10.992;2023-03-13T12:35:43;14.70;99.90
14093;DHT22;7123;49.468;10.992;2023-03-13T12:38:27;14.80;99.90
14093;DHT22;7123;49.468;10.992;2023-03-13T12:41:17;14.70;99.90
14093;DHT22;7123;49.468;10.992;2023-03-13T12:43:50;14.80;99.90
14093;DHT22;7123;49.468;10.992;2023-03-13T12:46:38;14.90;99.90
14093;DHT22;7123;49.468;10.992;2023-03-13T12:52:17;15.10;99.90
14093;DHT22;7123;49.468;10.992;2023-03-13T13:00:30;15.10;99.90
14093;DHT22;7123;49.468;10.992;2023-03-13T13:06:05;15.40;99.90
14093;DHT22;7123;49.468;10.992;2023-03-13T13:08:36;15.50;99.90
14093;DHT22;7123;49.468;10.992;2023-03-13T13:17:25;15.20;99.90
14093;DHT22;7123;49.468;10.992;2023-03-13T13:19:54;15.40;99.90
14093;DHT22;7123;49.468;10.992;2023-03-13T13:32:54;15.90;99.90
14093;DHT22;7123;49.468;10.992;2023-03-13T13:35:28;16.10;99.90
14093;DHT22;7123;49.468;10.992;2023-03-13T13:41:04;16.40;99.90
14093;DHT22;7123;49.468;10.992;2023-03-13T13:43:41;16.40;99.90
14093;DHT22;7123;49.468;10.992;2023-03-13T13:46:29;16.50;99.90
14093;DHT22;7123;49.468;10.992;2023-03-13T13:49:14;16.60;99.90
14093;DHT22;7123;49.468;10.992;2023-03-13T13:57:14;16.50;99.90
14093;DHT22;7123;49.468;10.992;2023-03-13T13:59:47;16.70;99.90
14093;DHT22;7123;49.468;10.992;2023-03-13T14:02:18;16.80;99.90
14093;DHT22;7123;49.468;10.992;2023-03-13T14:05:00;16.80;99.90
14093;DHT22;7123;49.468;10.992;2023-03-13T14:07:35;16.70;99.90
14093;DHT22;7123;49.468;10.992;2023-03-13T14:10:05;16.80;99.90
14093;DHT22;7123;49.468;10.992;2023-03-13T14:12:37;16.80;99.90
14093;DHT22;7123;49.468;10.992;2023-03-13T14:17:42;16.80;99.90
14093;DHT22;7123;49.468;10.992;2023-03-13T14:20:36;16.50;99.90
14093;DHT22;7123;49.468;10.992;2023-03-13T14:23:09;16.30;99.90
14093;DHT22;7123;49.468;10.992;2023-03-13T14:25:54;16.30;99.90
14093;DHT22;7123;49.468;10.992;2023-03-13T14:28:28;16.20;99.90
14093;DHT22;7123;49.468;10.992;2023-03-13T14:30:56;16.20;99.90
14093;DHT22;7123;49.468;10.992;2023-03-13T14:33:24;16.30;99.90
14093;DHT22;7123;49.468;10.992;2023-03-13T14:35:53;16.30;99.90
14093;DHT22;7123;49.468;10.992;2023-03-13T14:38:22;16.20;99.90
14093;DHT22;7123;49.468;10.992;2023-03-13T14:40:51;16.10;99.90
14093;DHT22;7123;49.468;10.992;2023-03-13T14:45:53;16.10;99.90
14093;DHT22;7123;49.468;10.992;2023-03-13T14:48:31;16.00;99.90
14093;DHT22;7123;49.468;10.992;2023-03-13T14:51:07;16.10;99.90
14093;DHT22;7123;49.468;10.992;2023-03-13T14:53:53;16.30;99.90
14093;DHT22;7123;49.468;10.992;2023-03-13T14:56:33;16.40;99.90
14093;DHT22;7123;49.468;10.992;2023-03-13T14:59:15;16.50;99.90
14093;DHT22;7123;49.468;10.992;2023-03-13T15:01:43;16.60;99.90
14093;DHT22;7123;49.468;10.992;2023-03-13T15:04:10;16.50;99.90
14093;DHT22;7123;49.468;10.992;2023-03-13T15:06:37;16.40;99.90
14093;DHT22;7123;49.468;10.992;2023-03-13T15:09:14;16.50;99.90
14093;DHT22;7123;49.468;10.992;2023-03-13T15:12:04;16.70;99.90
14093;DHT22;7123;49.468;10.992;2023-03-13T15:14:34;16.80;99.90
14093;DHT22;7123;49.468;10.992;2023-03-13T15:17:01;16.90;99.90
14093;DHT22;7123;49.468;10.992;2023-03-13T15:19:30;17.00;99.90
14093;DHT22;7123;49.468;10.992;2023-03-13T15:21:57;17.20;99.90
14093;DHT22;7123;49.468;10.992;2023-03-13T15:24:24;17.10;99.90
14093;DHT22;7123;49.468;10.992;2023-03-13T15:26:51;17.10;99.90
14093;DHT22;7123;49.468;10.992;2023-03-13T15:29:17;17.00;99.90
14093;DHT22;7123;49.468;10.992;2023-03-13T15:31:45;17.00;99.90
14093;DHT22;7123;49.468;10.992;2023-03-13T15:34:18;17.00;99.90
14093;DHT22;7123;49.468;10.992;2023-03-13T15:36:50;16.90;99.90
14093;DHT22;7123;49.468;10.992;2023-03-13T15:39:17;16.80;99.90
14093;DHT22;7123;49.468;10.992;2023-03-13T15:41:45;16.70;99.90
14093;DHT22;7123;49.468;10.992;2023-03-13T15:44:12;16.80;99.90
14093;DHT22;7123;49.468;10.992;2023-03-13T15:46:39;16.80;99.90
14093;DHT22;7123;49.468;10.992;2023-03-13T15:49:09;16.80;99.90
14093;DHT22;7123;49.468;10.992;2023-03-13T15:51:38;16.90;99.90
14093;DHT22;7123;49.468;10.992;2023-03-13T15:54:05;16.80;99.90
14093;DHT22;7123;49.468;10.992;2023-03-13T15:56:34;16.70;99.90
14093;DHT22;7123;49.468;10.992;2023-03-13T15:59:09;16.80;99.90
14093;DHT22;7123;49.468;10.992;2023-03-13T16:01:37;16.80;99.90
14093;DHT22;7123;49.468;10.992;2023-03-13T16:04:04;16.80;99.90
14093;DHT22;7123;49.468;10.992;2023-03-13T16:06:31;16.80;99.90
14093;DHT22;7123;49.468;10.992;2023-03-13T16:08:59;16.90;99.90
14093;DHT22;7123;49.468;10.992;2023-03-13T16:11:27;16.80;99.90
14093;DHT22;7123;49.468;10.992;2023-03-13T16:13:54;16.90;99.90
14093;DHT22;7123;49.468;10.992;2023-03-13T16:16:24;16.70;99.90
14093;DHT22;7123;49.468;10.992;2023-03-13T16:18:54;16.70;99.90
14093;DHT22;7123;49.468;10.992;2023-03-13T16:21:27;16.60;99.90
14093;DHT22;7123;49.468;10.992;2023-03-13T16:23:54;16.60;99.90
14093;DHT22;7123;49.468;10.992;2023-03-13T16:26:23;16.60;99.90
14093;DHT22;7123;49.468;10.992;2023-03-13T16:28:51;16.50;99.90
14093;DHT22;7123;49.468;10.992;2023-03-13T16:31:24;16.50;99.90
14093;DHT22;7123;49.468;10.992;2023-03-13T16:33:53;16.30;99.90
14093;DHT22;7123;49.468;10.992;2023-03-13T16:36:22;16.20;99.90
14093;DHT22;7123;49.468;10.992;2023-03-13T16:38:50;16.00;99.90
14093;DHT22;7123;49.468;10.992;2023-03-13T16:41:19;16.00;99.90
14093;DHT22;7123;49.468;10.992;2023-03-13T16:43:46;16.10;99.90
14093;DHT22;7123;49.468;10.992;2023-03-13T16:46:14;16.20;99.90
14093;DHT22;7123;49.468;10.992;2023-03-13T16:48:42;16.10;99.90
14093;DHT22;7123;49.468;10.992;2023-03-13T16:51:15;16.20;99.90
14093;DHT22;7123;49.468;10.992;2023-03-13T16:53:44;16.10;99.90
14093;DHT22;7123;49.468;10.992;2023-03-13T16:58:53;16.00;99.90
14093;DHT22;7123;49.468;10.992;2023-03-13T17:01:21;15.90;99.90
14093;DHT22;7123;49.468;10.992;2023-03-13T17:03:50;15.90;99.90
14093;DHT22;7123;49.468;10.992;2023-03-13T17:06:38;15.80;99.90
14093;DHT22;7123;49.468;10.992;2023-03-13T17:09:12;15.70;99.90
14093;DHT22;7123;49.468;10.992;2023-03-13T17:11:39;15.60;99.90
14093;DHT22;7123;49.468;10.992;2023-03-13T17:14:05;15.50;99.90
14093;DHT22;7123;49.468;10.992;2023-03-13T17:16:40;15.50;99.90
14093;DHT22;7123;49.468;10.992;2023-03-13T17:19:12;15.30;99.90
14093;DHT22;7123;49.468;10.992;2023-03-13T17:21:39;15.30;99.90
14093;DHT22;7123;49.468;10.992;2023-03-13T17:24:06;15.30;99.90
14093;DHT22;7123;49.468;10.992;2023-03-13T17:26:38;15.30;99.90
14093;DHT22;7123;49.468;10.992;2023-03-13T17:29:06;15.20;99.90
14093;DHT22;7123;49.468;10.992;2023-03-13T17:31:33;15.20;99.90
14093;DHT22;7123;49.468;10.992;2023-03-13T17:34:04;15.20;99.90
14093;DHT22;7123;49.468;10.992;2023-03-13T17:36:33;15.30;99.90
14093;DHT22;7123;49.468;10.992;2023-03-13T17:39:02;15.20;99.90
14093;DHT22;7123;49.468;10.992;2023-03-13T17:41:32;15.10;99.90